sensor_id;sensor_type;location;lat;lon;timestamp;temperature;humidity
24522;DHT22;12680;57.804;12.190;2024-01-10T00:01:57;0.40;99.90
24522;DHT22;12680;57.804;12.190;2024-01-10T00:04:24;2.30;99.90
24522;DHT22;12680;57.804;12.190;2024-01-10T00:06:51;0.30;99.90
24522;DHT22;12680;57.804;12.190;2024-01-10T00:09:18;0.20;99.90
24522;DHT22;12680;57.804;12.190;2024-01-10T00:11:45;0.10;99.90
24522;DHT22;12680;57.804;12.190;2024-01-10T00:14:12;0.00;99.90
24522;DHT22;12680;57.804;12.190;2024-01-10T00:16:38;0.00;99.90
24522;DHT22;12680;57.804;12.190;2024-01-10T00:19:05;0.10;99.90
24522;DHT22;12680;57.804;12.190;2024-01-10T00:21:32;0.20;99.90
24522;DHT22;12680;57.804;12.190;2024-01-10T00:23:59;0.10;99.90
24522;DHT22;12680;57.804;12.190;2024-01-10T00:26:26;0.00;99.90
24522;DHT22;12680;57.804;12.190;2024-01-10T00:28:52;-0.10;99.90
24522;DHT22;12680;57.804;12.190;2024-01-10T00:31:29;-0.20;99.90
24522;DHT22;12680;57.804;12.190;2024-01-10T00:33:56;-0.30;99.90
24522;DHT22;12680;57.804;12.190;2024-01-10T00:36:23;-0.40;99.90
24522;DHT22;12680;57.804;12.190;2024-01-10T00:38:50;-0.40;99.90
24522;DHT22;12680;57.804;12.190;2024-01-10T00:41:17;-0.30;99.90
24522;DHT22;12680;57.804;12.190;2024-01-10T00:43:43;-0.30;99.90
24522;DHT22;12680;57.804;12.190;2024-01-10T00:46:10;-0.20;99.90
24522;DHT22;12680;57.804;12.190;2024-01-10T00:48:37;-0.30;99.90
24522;DHT22;12680;57.804;12.190;2024-01-10T00:51:04;-0.30;99.90
24522;DHT22;12680;57.804;12.190;2024-01-10T00:53:35;-0.40;99.90
24522;DHT22;12680;57.804;12.190;2024-01-10T00:56:02;-0.30;99.90
24522;DHT22;12680;57.804;12.190;2024-01-10T00:58:29;-0.40;99.90
24522;DHT22;12680;57.804;12.190;2024-01-10T01:00:56;-0.50;99.90
24522;DHT22;12680;57.804;12.190;2024-01-10T01:03:23;-0.60;99.90
24522;DHT22;12680;57.804;12.190;2024-01-10T01:05:49;2.80;99.90
24522;DHT22;12680;57.804;12.190;2024-01-10T01:08:16;-0.60;99.90
24522;DHT22;12680;57.804;12.190;2024-01-10T01:10:43;-0.60;99.90
24522;DHT22;12680;57.804;12.190;2024-01-10T01:13:10;-0.70;99.90
24522;DHT22;12680;57.804;12.190;2024-01-10T01:15:37;-0.70;99.90
24522;DHT22;12680;57.804;12.190;2024-01-10T01:18:04;-0.70;99.90
24522;DHT22;12680;57.804;12.190;2024-01-10T01:20:32;-0.60;99.90
24522;DHT22;12680;57.804;12.190;2024-01-10T01:22:59;-0.50;99.90
24522;DHT22;12680;57.804;12.190;2024-01-10T01:25:26;-0.40;99.90
24522;DHT22;12680;57.804;12.190;2024-01-10T01:27:53;-0.30;99.90
24522;DHT22;12680;57.804;12.190;2024-01-10T01:30:20;-0.20;99.90
24522;DHT22;12680;57.804;12.190;2024-01-10T01:32:48;1.10;99.90
24522;DHT22;12680;57.804;12.190;2024-01-10T01:35:15;0.00;99.90
24522;DHT22;12680;57.804;12.190;2024-01-10T01:37:48;0.00;99.90
24522;DHT22;12680;57.804;12.190;2024-01-10T01:40:18;0.00;99.90
24522;DHT22;12680;57.804;12.190;2024-01-10T01:42:46;0.00;99.90
24522;DHT22;12680;57.804;12.190;2024-01-10T01:45:13;0.10;99.90
24522;DHT22;12680;57.804;12.190;2024-01-10T01:47:40;0.10;99.90
24522;DHT22;12680;57.804;12.190;2024-01-10T01:50:08;0.10;99.90
24522;DHT22;12680;57.804;12.190;2024-01-10T01:52:36;0.10;99.90
24522;DHT22;12680;57.804;12.190;2024-01-10T01:55:04;-0.90;99.90
24522;DHT22;12680;57.804;12.190;2024-01-10T01:57:32;0.00;99.90
24522;DHT22;12680;57.804;12.190;2024-01-10T01:59:59;0.10;99.90
24522;DHT22;12680;57.804;12.190;2024-01-10T02:02:27;0.10;99.90
24522;DHT22;12680;57.804;12.190;2024-01-10T02:04:54;0.00;99.90
24522;DHT22;12680;57.804;12.190;2024-01-10T02:07:22;-0.10;99.90
24522;DHT22;12680;57.804;12.190;2024-01-10T02:09:49;-0.10;99.90
24522;DHT22;12680;57.804;12.190;2024-01-10T02:12:16;-0.20;99.90
24522;DHT22;12680;57.804;12.190;2024-01-10T02:14:43;-0.30;99.90
24522;DHT22;12680;57.804;12.190;2024-01-10T02:17:09;-0.30;99.90
24522;DHT22;12680;57.804;12.190;2024-01-10T02:19:37;-0.40;99.90
24522;DHT22;12680;57.804;12.190;2024-01-10T02:22:04;-0.50;99.90
24522;DHT22;12680;57.804;12.190;2024-01-10T02:24:31;-0.60;99.90
24522;DHT22;12680;57.804;12.190;2024-01-10T02:26:57;-0.60;99.90
24522;DHT22;12680;57.804;12.190;2024-01-10T02:29:24;-0.60;99.90
24522;DHT22;12680;57.804;12.190;2024-01-10T02:31:51;-0.60;99.90
24522;DHT22;12680;57.804;12.190;2024-01-10T02:34:18;-0.60;99.90
24522;DHT22;12680;57.804;12.190;2024-01-10T02:36:45;-0.70;99.90
24522;DHT22;12680;57.804;12.190;2024-01-10T02:39:12;-0.60;99.90
24522;DHT22;12680;57.804;12.190;2024-01-10T02:41:38;1.70;99.90
24522;DHT22;12680;57.804;12.190;2024-01-10T02:44:05;2.10;99.90
24522;DHT22;12680;57.804;12.190;2024-01-10T02:46:32;-0.60;99.90
24522;DHT22;12680;57.804;12.190;2024-01-10T02:48:59;-0.10;99.90
24522;DHT22;12680;57.804;12.190;2024-01-10T02:51:27;-2.80;99.90
24522;DHT22;12680;57.804;12.190;2024-01-10T02:53:54;-0.60;99.90
24522;DHT22;12680;57.804;12.190;2024-01-10T02:56:21;-0.50;99.90
24522;DHT22;12680;57.804;12.190;2024-01-10T02:58:48;-0.30;99.90
24522;DHT22;12680;57.804;12.190;2024-01-10T03:01:15;-0.30;99.90
24522;DHT22;12680;57.804;12.190;2024-01-10T03:03:42;-0.40;99.90
24522;DHT22;12680;57.804;12.190;2024-01-10T03:06:09;-0.50;99.90
24522;DHT22;12680;57.804;12.190;2024-01-10T03:08:36;-0.60;99.90
24522;DHT22;12680;57.804;12.190;2024-01-10T03:11:03;-0.70;99.90
24522;DHT22;12680;57.804;12.190;2024-01-10T03:13:30;-0.80;99.90
24522;DHT22;12680;57.804;12.190;2024-01-10T03:15:57;-1.00;99.90
24522;DHT22;12680;57.804;12.190;2024-01-10T03:18:24;-1.10;99.90
24522;DHT22;12680;57.804;12.190;2024-01-10T03:20:51;-1.20;99.90
24522;DHT22;12680;57.804;12.190;2024-01-10T03:23:18;-1.30;99.90
24522;DHT22;12680;57.804;12.190;2024-01-10T03:25:44;-1.20;99.90
24522;DHT22;12680;57.804;12.190;2024-01-10T03:28:15;-1.20;99.90
24522;DHT22;12680;57.804;12.190;2024-01-10T03:30:42;-1.30;99.90
24522;DHT22;12680;57.804;12.190;2024-01-10T03:33:09;-1.40;99.90
24522;DHT22;12680;57.804;12.190;2024-01-10T03:35:36;-1.40;99.90
24522;DHT22;12680;57.804;12.190;2024-01-10T03:38:03;-1.50;99.90
24522;DHT22;12680;57.804;12.190;2024-01-10T03:40:30;-1.40;99.90
24522;DHT22;12680;57.804;12.190;2024-01-10T03:42:57;-1.40;99.90
24522;DHT22;12680;57.804;12.190;2024-01-10T03:45:24;-1.40;99.90
24522;DHT22;12680;57.804;12.190;2024-01-10T03:47:51;-1.50;99.90
24522;DHT22;12680;57.804;12.190;2024-01-10T03:50:19;-1.60;99.90
24522;DHT22;12680;57.804;12.190;2024-01-10T03:52:46;-1.60;99.90
24522;DHT22;12680;57.804;12.190;2024-01-10T03:55:13;-1.60;99.90
24522;DHT22;12680;57.804;12.190;2024-01-10T03:57:42;-1.70;99.90
24522;DHT22;12680;57.804;12.190;2024-01-10T04:00:09;-1.80;99.90
24522;DHT22;12680;57.804;12.190;2024-01-10T04:02:39;-2.00;99.90
24522;DHT22;12680;57.804;12.190;2024-01-10T04:05:09;-2.00;99.90
24522;DHT22;12680;57.804;12.190;2024-01-10T04:07:39;-2.00;99.90
24522;DHT22;12680;57.804;12.190;2024-01-10T04:10:06;-2.00;99.90
24522;DHT22;12680;57.804;12.190;2024-01-10T04:12:37;-1.80;99.90
24522;DHT22;12680;57.804;12.190;2024-01-10T04:15:04;-1.60;99.90
24522;DHT22;12680;57.804;12.190;2024-01-10T04:17:31;-1.50;99.90
24522;DHT22;12680;57.804;12.190;2024-01-10T04:19:58;-1.30;99.90
24522;DHT22;12680;57.804;12.190;2024-01-10T04:22:25;-1.20;99.90
24522;DHT22;12680;57.804;12.190;2024-01-10T04:24:52;-1.10;99.90
24522;DHT22;12680;57.804;12.190;2024-01-10T04:27:19;-1.10;99.90
24522;DHT22;12680;57.804;12.190;2024-01-10T04:29:46;-1.20;99.90
24522;DHT22;12680;57.804;12.190;2024-01-10T04:32:12;-1.20;99.90
24522;DHT22;12680;57.804;12.190;2024-01-10T04:34:39;-1.30;99.90
24522;DHT22;12680;57.804;12.190;2024-01-10T04:37:06;-1.40;99.90
24522;DHT22;12680;57.804;12.190;2024-01-10T04:39:37;-1.80;99.90
24522;DHT22;12680;57.804;12.190;2024-01-10T04:42:13;-1.80;99.90
24522;DHT22;12680;57.804;12.190;2024-01-10T04:44:40;-2.00;99.90
24522;DHT22;12680;57.804;12.190;2024-01-10T04:47:07;-2.00;99.90
24522;DHT22;12680;57.804;12.190;2024-01-10T04:52:02;-2.00;99.90
24522;DHT22;12680;57.804;12.190;2024-01-10T04:54:29;-2.10;99.90
24522;DHT22;12680;57.804;12.190;2024-01-10T04:56:55;-2.30;99.90
24522;DHT22;12680;57.804;12.190;2024-01-10T04:59:22;-2.30;99.90
24522;DHT22;12680;57.804;12.190;2024-01-10T05:01:49;-0.90;99.90
24522;DHT22;12680;57.804;12.190;2024-01-10T05:04:16;-2.30;99.90
24522;DHT22;12680;57.804;12.190;2024-01-10T05:06:43;-2.00;99.90
24522;DHT22;12680;57.804;12.190;2024-01-10T05:09:10;-2.00;99.90
24522;DHT22;12680;57.804;12.190;2024-01-10T05:11:37;-1.80;99.90
24522;DHT22;12680;57.804;12.190;2024-01-10T05:14:06;-2.10;99.90
24522;DHT22;12680;57.804;12.190;2024-01-10T05:16:33;-2.20;99.90
24522;DHT22;12680;57.804;12.190;2024-01-10T05:19:02;-2.30;99.90
24522;DHT22;12680;57.804;12.190;2024-01-10T05:21:31;-2.30;99.90
24522;DHT22;12680;57.804;12.190;2024-01-10T05:26:25;-2.40;99.90
24522;DHT22;12680;57.804;12.190;2024-01-10T05:28:52;-2.50;99.90
24522;DHT22;12680;57.804;12.190;2024-01-10T05:31:19;-2.50;99.90
24522;DHT22;12680;57.804;12.190;2024-01-10T05:33:47;-2.50;99.90
24522;DHT22;12680;57.804;12.190;2024-01-10T05:36:14;-2.60;99.90
24522;DHT22;12680;57.804;12.190;2024-01-10T05:38:41;-2.60;99.90
24522;DHT22;12680;57.804;12.190;2024-01-10T05:41:08;-2.50;99.90
24522;DHT22;12680;57.804;12.190;2024-01-10T05:43:35;-2.60;99.90
24522;DHT22;12680;57.804;12.190;2024-01-10T05:46:02;-2.60;99.90
24522;DHT22;12680;57.804;12.190;2024-01-10T05:48:31;-2.70;99.90
24522;DHT22;12680;57.804;12.190;2024-01-10T05:50:59;-2.70;99.90
24522;DHT22;12680;57.804;12.190;2024-01-10T05:53:25;-2.60;99.90
24522;DHT22;12680;57.804;12.190;2024-01-10T05:55:52;-2.60;99.90
24522;DHT22;12680;57.804;12.190;2024-01-10T05:58:19;-2.60;99.90
24522;DHT22;12680;57.804;12.190;2024-01-10T06:00:47;-2.60;99.90
24522;DHT22;12680;57.804;12.190;2024-01-10T06:03:14;-2.50;99.90
24522;DHT22;12680;57.804;12.190;2024-01-10T06:05:40;-2.50;99.90
24522;DHT22;12680;57.804;12.190;2024-01-10T06:08:07;-2.60;99.90
24522;DHT22;12680;57.804;12.190;2024-01-10T06:10:34;-2.50;99.90
24522;DHT22;12680;57.804;12.190;2024-01-10T06:13:04;-2.40;99.90
24522;DHT22;12680;57.804;12.190;2024-01-10T06:15:31;-0.40;99.90
24522;DHT22;12680;57.804;12.190;2024-01-10T06:17:58;-2.10;99.90
24522;DHT22;12680;57.804;12.190;2024-01-10T06:20:25;-2.20;99.90
24522;DHT22;12680;57.804;12.190;2024-01-10T06:22:52;-2.20;99.90
24522;DHT22;12680;57.804;12.190;2024-01-10T06:25:19;-2.30;99.90
24522;DHT22;12680;57.804;12.190;2024-01-10T06:27:46;-2.30;99.90
24522;DHT22;12680;57.804;12.190;2024-01-10T06:30:12;-2.30;99.90
24522;DHT22;12680;57.804;12.190;2024-01-10T06:32:39;-2.20;99.90
24522;DHT22;12680;57.804;12.190;2024-01-10T06:35:06;-2.20;99.90
24522;DHT22;12680;57.804;12.190;2024-01-10T06:37:36;-2.00;99.90
24522;DHT22;12680;57.804;12.190;2024-01-10T06:40:04;-2.00;99.90
24522;DHT22;12680;57.804;12.190;2024-01-10T06:42:32;-2.10;99.90
24522;DHT22;12680;57.804;12.190;2024-01-10T06:44:59;-2.10;99.90
24522;DHT22;12680;57.804;12.190;2024-01-10T06:47:25;-2.30;99.90
24522;DHT22;12680;57.804;12.190;2024-01-10T06:49:52;-2.30;99.90
24522;DHT22;12680;57.804;12.190;2024-01-10T06:52:19;-2.30;99.90
24522;DHT22;12680;57.804;12.190;2024-01-10T06:54:46;-2.20;99.90
24522;DHT22;12680;57.804;12.190;2024-01-10T06:57:13;-2.30;99.90
24522;DHT22;12680;57.804;12.190;2024-01-10T06:59:39;-2.20;99.90
24522;DHT22;12680;57.804;12.190;2024-01-10T07:02:06;-2.20;99.90
24522;DHT22;12680;57.804;12.190;2024-01-10T07:04:37;-2.10;99.90
24522;DHT22;12680;57.804;12.190;2024-01-10T07:07:04;-2.20;99.90
24522;DHT22;12680;57.804;12.190;2024-01-10T07:09:31;-2.00;99.90
24522;DHT22;12680;57.804;12.190;2024-01-10T07:11:58;-2.40;99.90
24522;DHT22;12680;57.804;12.190;2024-01-10T07:14:24;-2.50;99.90
24522;DHT22;12680;57.804;12.190;2024-01-10T07:16:51;-2.60;99.90
24522;DHT22;12680;57.804;12.190;2024-01-10T07:19:18;-2.60;99.90
24522;DHT22;12680;57.804;12.190;2024-01-10T07:21:45;-2.60;99.90
24522;DHT22;12680;57.804;12.190;2024-01-10T07:24:12;-2.60;99.90
24522;DHT22;12680;57.804;12.190;2024-01-10T07:26:39;-2.70;99.90
24522;DHT22;12680;57.804;12.190;2024-01-10T07:29:06;-2.80;99.90
24522;DHT22;12680;57.804;12.190;2024-01-10T07:31:36;-2.80;99.90
24522;DHT22;12680;57.804;12.190;2024-01-10T07:34:03;-2.80;99.90
24522;DHT22;12680;57.804;12.190;2024-01-10T07:36:33;-2.70;99.90
24522;DHT22;12680;57.804;12.190;2024-01-10T07:39:01;-2.70;99.90
24522;DHT22;12680;57.804;12.190;2024-01-10T07:41:30;-2.80;99.90
24522;DHT22;12680;57.804;12.190;2024-01-10T07:43:57;-2.80;99.90
24522;DHT22;12680;57.804;12.190;2024-01-10T07:46:24;-2.90;99.90
24522;DHT22;12680;57.804;12.190;2024-01-10T07:48:50;-3.00;99.90
24522;DHT22;12680;57.804;12.190;2024-01-10T07:51:17;-3.00;99.90
24522;DHT22;12680;57.804;12.190;2024-01-10T07:53:44;-3.10;99.90
24522;DHT22;12680;57.804;12.190;2024-01-10T07:56:11;-3.10;99.90
24522;DHT22;12680;57.804;12.190;2024-01-10T07:58:39;-3.30;99.90
24522;DHT22;12680;57.804;12.190;2024-01-10T08:03:34;-3.20;99.90
24522;DHT22;12680;57.804;12.190;2024-01-10T08:06:02;-3.30;99.90
24522;DHT22;12680;57.804;12.190;2024-01-10T08:08:29;-3.30;99.90
24522;DHT22;12680;57.804;12.190;2024-01-10T08:10:56;-3.30;99.90
24522;DHT22;12680;57.804;12.190;2024-01-10T08:13:23;-3.20;99.90
24522;DHT22;12680;57.804;12.190;2024-01-10T08:15:50;-3.10;99.90
24522;DHT22;12680;57.804;12.190;2024-01-10T08:18:17;-2.90;99.90
24522;DHT22;12680;57.804;12.190;2024-01-10T08:20:44;-2.90;99.90
24522;DHT22;12680;57.804;12.190;2024-01-10T08:23:11;-2.40;99.90
24522;DHT22;12680;57.804;12.190;2024-01-10T08:25:38;-2.40;99.90
24522;DHT22;12680;57.804;12.190;2024-01-10T08:28:06;-2.00;99.90
24522;DHT22;12680;57.804;12.190;2024-01-10T08:30:32;-2.00;99.90
24522;DHT22;12680;57.804;12.190;2024-01-10T08:32:59;-1.80;99.90
24522;DHT22;12680;57.804;12.190;2024-01-10T08:35:26;-1.80;99.90
24522;DHT22;12680;57.804;12.190;2024-01-10T08:37:54;-1.70;99.90
24522;DHT22;12680;57.804;12.190;2024-01-10T08:40:21;-1.70;99.90
24522;DHT22;12680;57.804;12.190;2024-01-10T08:42:52;-1.70;99.90
24522;DHT22;12680;57.804;12.190;2024-01-10T08:45:19;-1.60;99.90
24522;DHT22;12680;57.804;12.190;2024-01-10T08:47:46;-1.50;99.90
24522;DHT22;12680;57.804;12.190;2024-01-10T08:50:12;-1.50;99.90
24522;DHT22;12680;57.804;12.190;2024-01-10T08:52:39;-1.30;99.90
24522;DHT22;12680;57.804;12.190;2024-01-10T08:55:07;-1.20;99.90
24522;DHT22;12680;57.804;12.190;2024-01-10T08:57:39;-1.30;99.90
24522;DHT22;12680;57.804;12.190;2024-01-10T09:00:06;-1.20;99.90
24522;DHT22;12680;57.804;12.190;2024-01-10T09:02:34;-1.10;99.90
24522;DHT22;12680;57.804;12.190;2024-01-10T09:05:03;-1.00;99.90
24522;DHT22;12680;57.804;12.190;2024-01-10T09:07:31;-1.00;99.90
24522;DHT22;12680;57.804;12.190;2024-01-10T09:09:57;1.60;99.90
24522;DHT22;12680;57.804;12.190;2024-01-10T09:12:24;-1.10;99.90
24522;DHT22;12680;57.804;12.190;2024-01-10T09:14:52;-1.00;99.90
24522;DHT22;12680;57.804;12.190;2024-01-10T09:17:18;-1.00;99.90
24522;DHT22;12680;57.804;12.190;2024-01-10T09:19:45;-0.90;99.90
24522;DHT22;12680;57.804;12.190;2024-01-10T09:22:12;-0.80;99.90
24522;DHT22;12680;57.804;12.190;2024-01-10T09:24:40;-0.50;99.90
24522;DHT22;12680;57.804;12.190;2024-01-10T09:27:09;-0.50;99.90
24522;DHT22;12680;57.804;12.190;2024-01-10T09:29:36;-0.50;99.90
24522;DHT22;12680;57.804;12.190;2024-01-10T09:32:03;-0.70;99.90
24522;DHT22;12680;57.804;12.190;2024-01-10T09:34:30;-0.90;99.90
24522;DHT22;12680;57.804;12.190;2024-01-10T09:36:58;-0.90;99.90
24522;DHT22;12680;57.804;12.190;2024-01-10T09:39:25;-1.00;99.90
24522;DHT22;12680;57.804;12.190;2024-01-10T09:41:52;-1.10;99.90
24522;DHT22;12680;57.804;12.190;2024-01-10T09:44:20;-1.10;99.90
24522;DHT22;12680;57.804;12.190;2024-01-10T09:46:51;-1.10;99.90
24522;DHT22;12680;57.804;12.190;2024-01-10T09:49:19;-1.10;99.90
24522;DHT22;12680;57.804;12.190;2024-01-10T09:51:51;-1.20;99.90
24522;DHT22;12680;57.804;12.190;2024-01-10T09:54:21;-1.30;99.90
24522;DHT22;12680;57.804;12.190;2024-01-10T09:56:48;-1.30;99.90
24522;DHT22;12680;57.804;12.190;2024-01-10T09:59:14;-1.20;99.90
24522;DHT22;12680;57.804;12.190;2024-01-10T10:01:42;-1.20;99.90
24522;DHT22;12680;57.804;12.190;2024-01-10T10:04:11;-1.20;99.90
24522;DHT22;12680;57.804;12.190;2024-01-10T10:06:38;-1.30;99.90
24522;DHT22;12680;57.804;12.190;2024-01-10T10:09:07;-1.40;99.90
24522;DHT22;12680;57.804;12.190;2024-01-10T10:11:34;-1.30;99.90
24522;DHT22;12680;57.804;12.190;2024-01-10T10:14:14;-1.30;99.90
24522;DHT22;12680;57.804;12.190;2024-01-10T10:16:41;-1.30;99.90
24522;DHT22;12680;57.804;12.190;2024-01-10T10:19:08;-1.30;99.90
24522;DHT22;12680;57.804;12.190;2024-01-10T10:21:36;-1.20;99.90
24522;DHT22;12680;57.804;12.190;2024-01-10T10:24:03;-1.10;99.90
24522;DHT22;12680;57.804;12.190;2024-01-10T10:26:34;-1.00;99.90
24522;DHT22;12680;57.804;12.190;2024-01-10T10:29:01;-1.00;99.90
24522;DHT22;12680;57.804;12.190;2024-01-10T10:31:29;-0.90;99.90
24522;DHT22;12680;57.804;12.190;2024-01-10T10:33:59;-0.80;99.90
24522;DHT22;12680;57.804;12.190;2024-01-10T10:36:27;-0.70;99.90
24522;DHT22;12680;57.804;12.190;2024-01-10T10:38:56;-0.50;99.90
24522;DHT22;12680;57.804;12.190;2024-01-10T10:41:27;-0.40;99.90
24522;DHT22;12680;57.804;12.190;2024-01-10T10:43:56;-0.30;99.90
24522;DHT22;12680;57.804;12.190;2024-01-10T10:46:23;-0.10;99.90
24522;DHT22;12680;57.804;12.190;2024-01-10T10:48:56;0.00;99.90
24522;DHT22;12680;57.804;12.190;2024-01-10T10:51:33;0.10;99.90
24522;DHT22;12680;57.804;12.190;2024-01-10T10:54:00;0.30;99.90
24522;DHT22;12680;57.804;12.190;2024-01-10T10:56:33;0.40;99.90
24522;DHT22;12680;57.804;12.190;2024-01-10T10:59:04;0.60;99.90
24522;DHT22;12680;57.804;12.190;2024-01-10T11:01:32;0.60;99.90
24522;DHT22;12680;57.804;12.190;2024-01-10T11:03:59;0.70;99.90
24522;DHT22;12680;57.804;12.190;2024-01-10T11:06:26;0.70;99.90
24522;DHT22;12680;57.804;12.190;2024-01-10T11:09:02;0.80;99.90
24522;DHT22;12680;57.804;12.190;2024-01-10T11:23:22;0.70;99.90
24522;DHT22;12680;57.804;12.190;2024-01-10T11:25:57;0.80;99.90
24522;DHT22;12680;57.804;12.190;2024-01-10T11:28:31;0.90;99.90
24522;DHT22;12680;57.804;12.190;2024-01-10T11:30:58;0.90;99.90
24522;DHT22;12680;57.804;12.190;2024-01-10T11:33:31;1.00;99.90
24522;DHT22;12680;57.804;12.190;2024-01-10T11:41:11;0.90;99.90
24522;DHT22;12680;57.804;12.190;2024-01-10T11:43:38;1.10;99.90
24522;DHT22;12680;57.804;12.190;2024-01-10T11:46:06;1.10;99.90
24522;DHT22;12680;57.804;12.190;2024-01-10T11:48:33;1.20;99.90
24522;DHT22;12680;57.804;12.190;2024-01-10T11:51:00;1.30;99.90
24522;DHT22;12680;57.804;12.190;2024-01-10T11:53:43;1.20;99.90
24522;DHT22;12680;57.804;12.190;2024-01-10T11:56:14;1.10;99.90
24522;DHT22;12680;57.804;12.190;2024-01-10T12:01:22;0.80;99.90
24522;DHT22;12680;57.804;12.190;2024-01-10T12:03:51;0.70;99.90
24522;DHT22;12680;57.804;12.190;2024-01-10T12:06:39;0.70;99.90
24522;DHT22;12680;57.804;12.190;2024-01-10T12:09:06;0.60;99.90
24522;DHT22;12680;57.804;12.190;2024-01-10T12:11:36;3.50;99.90
24522;DHT22;12680;57.804;12.190;2024-01-10T12:14:05;0.30;99.90
24522;DHT22;12680;57.804;12.190;2024-01-10T12:16:32;0.20;99.90
24522;DHT22;12680;57.804;12.190;2024-01-10T12:18:59;0.30;99.90
24522;DHT22;12680;57.804;12.190;2024-01-10T12:21:26;0.30;99.90
24522;DHT22;12680;57.804;12.190;2024-01-10T12:23:53;0.50;99.90
24522;DHT22;12680;57.804;12.190;2024-01-10T12:26:20;0.60;99.90
24522;DHT22;12680;57.804;12.190;2024-01-10T12:28:58;0.80;99.90
24522;DHT22;12680;57.804;12.190;2024-01-10T12:31:29;0.80;99.90
24522;DHT22;12680;57.804;12.190;2024-01-10T12:33:57;0.80;99.90
24522;DHT22;12680;57.804;12.190;2024-01-10T12:36:24;3.60;99.90
24522;DHT22;12680;57.804;12.190;2024-01-10T12:38:51;0.70;99.90
24522;DHT22;12680;57.804;12.190;2024-01-10T12:41:19;0.60;99.90
24522;DHT22;12680;57.804;12.190;2024-01-10T12:43:52;0.50;99.90
24522;DHT22;12680;57.804;12.190;2024-01-10T12:46:22;0.40;99.90
24522;DHT22;12680;57.804;12.190;2024-01-10T12:49:18;0.40;99.90
24522;DHT22;12680;57.804;12.190;2024-01-10T12:51:46;1.50;99.90
24522;DHT22;12680;57.804;12.190;2024-01-10T12:54:14;0.20;99.90
24522;DHT22;12680;57.804;12.190;2024-01-10T12:56:41;0.10;99.90
24522;DHT22;12680;57.804;12.190;2024-01-10T12:59:08;0.00;99.90
24522;DHT22;12680;57.804;12.190;2024-01-10T13:01:36;-0.20;99.90
24522;DHT22;12680;57.804;12.190;2024-01-10T13:04:03;-0.40;99.90
24522;DHT22;12680;57.804;12.190;2024-01-10T13:06:34;-0.50;99.90
24522;DHT22;12680;57.804;12.190;2024-01-10T13:09:01;-0.60;99.90
24522;DHT22;12680;57.804;12.190;2024-01-10T13:11:29;-0.70;99.90
24522;DHT22;12680;57.804;12.190;2024-01-10T13:13:57;-0.60;99.90
24522;DHT22;12680;57.804;12.190;2024-01-10T13:16:24;-0.60;99.90
24522;DHT22;12680;57.804;12.190;2024-01-10T13:18:51;-0.70;99.90
24522;DHT22;12680;57.804;12.190;2024-01-10T13:21:20;-0.80;99.90
24522;DHT22;12680;57.804;12.190;2024-01-10T13:23:47;-0.90;99.90
24522;DHT22;12680;57.804;12.190;2024-01-10T13:26:14;-0.40;99.90
24522;DHT22;12680;57.804;12.190;2024-01-10T13:28:42;-1.00;99.90
24522;DHT22;12680;57.804;12.190;2024-01-10T13:31:09;-1.10;99.90
24522;DHT22;12680;57.804;12.190;2024-01-10T13:33:37;-1.10;99.90
24522;DHT22;12680;57.804;12.190;2024-01-10T13:36:13;-1.20;99.90
24522;DHT22;12680;57.804;12.190;2024-01-10T13:38:40;-1.20;99.90
24522;DHT22;12680;57.804;12.190;2024-01-10T13:41:06;-1.30;99.90
24522;DHT22;12680;57.804;12.190;2024-01-10T13:43:34;-1.30;99.90
24522;DHT22;12680;57.804;12.190;2024-01-10T13:46:01;-1.40;99.90
24522;DHT22;12680;57.804;12.190;2024-01-10T13:48:35;-1.50;99.90
24522;DHT22;12680;57.804;12.190;2024-01-10T13:51:03;-1.60;99.90
24522;DHT22;12680;57.804;12.190;2024-01-10T13:53:29;0.10;99.90
24522;DHT22;12680;57.804;12.190;2024-01-10T13:55:57;-1.80;99.90
24522;DHT22;12680;57.804;12.190;2024-01-10T13:58:23;-1.80;99.90
24522;DHT22;12680;57.804;12.190;2024-01-10T14:00:51;-1.80;99.90
24522;DHT22;12680;57.804;12.190;2024-01-10T14:03:18;-1.90;99.90
24522;DHT22;12680;57.804;12.190;2024-01-10T14:05:45;-2.00;99.90
24522;DHT22;12680;57.804;12.190;2024-01-10T14:08:12;-1.90;99.90
24522;DHT22;12680;57.804;12.190;2024-01-10T14:10:39;-1.90;99.90
24522;DHT22;12680;57.804;12.190;2024-01-10T14:13:08;-1.90;99.90
24522;DHT22;12680;57.804;12.190;2024-01-10T14:15:35;-1.90;99.90
24522;DHT22;12680;57.804;12.190;2024-01-10T14:18:02;-1.90;99.90
24522;DHT22;12680;57.804;12.190;2024-01-10T14:20:29;-1.90;99.90
24522;DHT22;12680;57.804;12.190;2024-01-10T14:22:57;-2.00;99.90
24522;DHT22;12680;57.804;12.190;2024-01-10T14:25:27;-2.00;99.90
24522;DHT22;12680;57.804;12.190;2024-01-10T14:27:54;-2.00;99.90
24522;DHT22;12680;57.804;12.190;2024-01-10T14:30:21;-2.00;99.90
24522;DHT22;12680;57.804;12.190;2024-01-10T14:32:49;-1.90;99.90
24522;DHT22;12680;57.804;12.190;2024-01-10T14:35:16;-1.90;99.90
24522;DHT22;12680;57.804;12.190;2024-01-10T14:37:43;-1.90;99.90
24522;DHT22;12680;57.804;12.190;2024-01-10T14:40:10;-2.00;99.90
24522;DHT22;12680;57.804;12.190;2024-01-10T14:42:37;-1.90;99.90
24522;DHT22;12680;57.804;12.190;2024-01-10T14:45:04;-1.80;99.90
24522;DHT22;12680;57.804;12.190;2024-01-10T14:47:31;-1.70;99.90
24522;DHT22;12680;57.804;12.190;2024-01-10T14:49:58;-1.60;99.90
24522;DHT22;12680;57.804;12.190;2024-01-10T14:52:25;-1.40;99.90
24522;DHT22;12680;57.804;12.190;2024-01-10T14:54:53;-1.30;99.90
24522;DHT22;12680;57.804;12.190;2024-01-10T14:57:20;-1.20;99.90
24522;DHT22;12680;57.804;12.190;2024-01-10T14:59:48;-1.10;99.90
24522;DHT22;12680;57.804;12.190;2024-01-10T15:02:15;-0.90;99.90
24522;DHT22;12680;57.804;12.190;2024-01-10T15:04:45;-0.80;99.90
24522;DHT22;12680;57.804;12.190;2024-01-10T15:07:12;-0.70;99.90
24522;DHT22;12680;57.804;12.190;2024-01-10T15:09:41;-0.60;99.90
24522;DHT22;12680;57.804;12.190;2024-01-10T15:12:08;-0.50;99.90
24522;DHT22;12680;57.804;12.190;2024-01-10T15:14:37;-0.40;99.90
24522;DHT22;12680;57.804;12.190;2024-01-10T15:17:07;-0.30;99.90
24522;DHT22;12680;57.804;12.190;2024-01-10T15:19:36;-0.40;99.90
24522;DHT22;12680;57.804;12.190;2024-01-10T15:22:04;-0.60;99.90
24522;DHT22;12680;57.804;12.190;2024-01-10T15:24:32;-0.70;99.90
24522;DHT22;12680;57.804;12.190;2024-01-10T15:26:59;-0.80;99.90
24522;DHT22;12680;57.804;12.190;2024-01-10T15:29:29;-0.80;99.90
24522;DHT22;12680;57.804;12.190;2024-01-10T15:31:57;-0.80;99.90
24522;DHT22;12680;57.804;12.190;2024-01-10T15:34:24;-0.80;99.90
24522;DHT22;12680;57.804;12.190;2024-01-10T15:36:52;-0.80;99.90
24522;DHT22;12680;57.804;12.190;2024-01-10T15:39:19;-0.70;99.90
24522;DHT22;12680;57.804;12.190;2024-01-10T15:41:51;-0.70;99.90
24522;DHT22;12680;57.804;12.190;2024-01-10T15:44:19;-0.80;99.90
24522;DHT22;12680;57.804;12.190;2024-01-10T15:46:48;-1.00;99.90
24522;DHT22;12680;57.804;12.190;2024-01-10T15:49:15;-1.10;99.90
24522;DHT22;12680;57.804;12.190;2024-01-10T15:51:42;-1.10;99.90